Time;durP1;ratioP1;P1;durP2;ratioP2;P2;SDS_P1;SDS_P2;PMS_P1;PMS_P2;Temp;Humidity;BMP_temperature;BMP_pressure;BME280_temperature;BME280_humidity;BME280_pressure;Samples;Min_cycle;Max_cycle;Signal;HPM_P1;HPM_P2
2022/04/18 00:00:15;;;;;;;7.30;2.60;;;;;;;3.23;65.49;100564.14;1716447;83;21058;-53
2022/04/18 00:02:42;;;;;;;8.30;2.98;;;;;;;3.22;65.37;100559.88;1715225;82;21083;-53
2022/04/18 00:05:09;;;;;;;9.55;2.90;;;;;;;3.19;65.42;100556.11;1717474;83;21531;-53
2022/04/18 00:07:36;;;;;;;8.03;2.70;;;;;;;3.13;65.54;100550.28;1708385;81;22035;-53
2022/04/18 00:10:04;;;;;;;9.43;2.58;;;;;;;3.12;65.67;100556.39;1718837;83;22809;-52
2022/04/18 00:12:33;;;;;;;6.75;3.20;;;;;;;3.19;65.48;100554.81;1714166;81;21055;-53
2022/04/18 00:15:01;;;;;;;7.78;3.02;;;;;;;3.22;65.51;100550.31;1709250;82;21059;-53
2022/04/18 00:17:28;;;;;;;8.90;3.08;;;;;;;3.28;65.46;100557.84;1713930;81;21015;-52
2022/04/18 00:19:55;;;;;;;6.87;3.50;;;;;;;3.30;65.41;100553.86;1718711;82;21093;-52
2022/04/18 00:22:23;;;;;;;9.13;3.17;;;;;;;3.31;65.33;100548.59;1696510;82;21047;-52
2022/04/18 00:24:51;;;;;;;8.83;3.45;;;;;;;3.30;65.26;100550.80;1704884;82;21077;-53
2022/04/18 00:27:19;;;;;;;10.35;3.92;;;;;;;3.25;65.17;100543.67;1737696;81;21019;-52
2022/04/18 00:29:47;;;;;;;8.35;3.37;;;;;;;3.19;65.20;100549.15;1726521;80;21054;-53
2022/04/18 00:32:15;;;;;;;8.65;3.65;;;;;;;3.12;65.36;100541.25;1742595;81;21436;-53
2022/04/18 00:36:38;;;;;;;7.75;3.10;;;;;;;3.13;65.34;100530.78;1785114;79;22661;-54
2022/04/18 00:39:06;;;;;;;8.00;3.15;;;;;;;3.12;65.40;100538.19;1731754;80;20982;-53
2022/04/18 00:41:33;;;;;;;8.40;2.80;;;;;;;3.20;65.45;100536.55;1752829;81;21269;-53
2022/04/18 00:43:59;;;;;;;8.15;3.47;;;;;;;3.26;65.39;100541.91;1716401;81;21081;-53
2022/04/18 00:46:27;;;;;;;9.03;3.27;;;;;;;3.30;65.13;100533.06;1702073;82;21093;-53
2022/04/18 00:48:54;;;;;;;6.95;2.52;;;;;;;3.28;65.00;100531.83;1707155;83;21606;-53
2022/04/18 00:51:24;;;;;;;10.23;4.22;;;;;;;3.27;65.05;100531.90;1708329;82;20982;-53
2022/04/18 00:53:56;;;;;;;7.37;3.70;;;;;;;3.25;65.07;100527.23;1716367;81;21221;-53
2022/04/18 00:56:23;;;;;;;9.20;3.25;;;;;;;3.19;65.12;100522.31;1722428;83;21020;-54
2022/04/18 00:58:50;;;;;;;6.90;3.30;;;;;;;3.18;65.11;100518.87;1711909;81;20986;-53
2022/04/18 01:01:18;;;;;;;6.58;3.02;;;;;;;3.25;65.08;100511.63;1716131;81;21054;-53
2022/04/18 01:03:47;;;;;;;6.70;2.60;;;;;;;3.31;65.01;100516.52;1703821;81;21542;-54
2022/04/18 01:06:15;;;;;;;8.50;3.45;;;;;;;3.33;64.84;100516.02;1716418;83;21154;-53
2022/04/18 01:08:43;;;;;;;7.35;3.27;;;;;;;3.34;65.01;100516.38;1708843;82;21548;-54
2022/04/18 01:11:10;;;;;;;6.95;3.12;;;;;;;3.31;64.93;100513.92;1719286;83;20990;-53
2022/04/18 01:13:55;;;;;;;7.95;3.52;;;;;;;3.19;64.97;100508.01;1712157;82;21113;-52
2022/04/18 01:16:40;;;;;;;6.42;3.37;;;;;;;3.05;65.35;100500.87;1668676;83;21073;-53
2022/04/18 01:19:12;;;;;;;10.68;3.92;;;;;;;3.00;65.37;100500.23;1661811;83;21875;-53
2022/04/18 01:21:40;;;;;;;10.32;4.22;;;;;;;2.98;65.53;100497.24;1707277;82;21035;-53
2022/04/18 01:29:48;;;;;;;8.28;3.67;;;;;;;3.05;65.69;100490.00;1616840;83;21120;-53
2022/04/18 01:32:15;;;;;;;9.13;4.53;;;;;;;3.10;65.71;100492.39;1714811;82;21026;-52
2022/04/18 01:34:41;;;;;;;9.53;4.33;;;;;;;3.14;65.62;100484.81;1709494;83;21074;-53
2022/04/18 01:37:08;;;;;;;12.03;4.20;;;;;;;3.13;65.45;100490.48;1703614;82;21053;-52
2022/04/18 01:39:35;;;;;;;8.35;3.95;;;;;;;3.08;65.45;100481.23;1703650;82;21521;-53
2022/04/18 01:42:04;;;;;;;12.05;4.80;;;;;;;3.00;65.51;100484.17;1694358;83;21126;-52
2022/04/18 01:44:31;;;;;;;10.25;4.45;;;;;;;2.90;65.80;100483.76;1689492;82;21742;-52
2022/04/18 01:46:59;;;;;;;10.35;3.60;;;;;;;2.86;66.03;100482.23;1684876;83;21071;-52
2022/04/18 01:49:26;;;;;;;8.13;4.15;;;;;;;2.92;66.08;100477.19;1682033;83;21612;-53
2022/04/18 01:51:53;;;;;;;8.10;4.08;;;;;;;3.03;66.03;100480.14;1659907;84;21119;-53
2022/04/18 01:54:20;;;;;;;8.08;4.00;;;;;;;3.13;66.02;100472.75;1705208;83;21091;-53
2022/04/18 01:56:48;;;;;;;8.95;4.58;;;;;;;3.20;65.83;100466.33;1704365;83;21158;-53
2022/04/18 01:59:16;;;;;;;8.38;4.25;;;;;;;3.25;65.74;100463.52;1702900;83;21054;-52
2022/04/18 02:01:43;;;;;;;10.00;4.40;;;;;;;3.27;65.62;100469.02;1706702;82;21098;-53
2022/04/18 02:04:11;;;;;;;10.58;4.83;;;;;;;3.26;65.38;100461.28;1697857;83;21154;-53
2022/04/18 02:06:39;;;;;;;9.25;4.70;;;;;;;3.22;65.25;100459.30;1701262;83;21020;-53
2022/04/18 02:09:06;;;;;;;8.90;4.70;;;;;;;3.14;65.26;100459.68;1681886;83;21173;-53
2022/04/18 02:11:34;;;;;;;10.98;5.15;;;;;;;3.10;65.35;100459.42;1699716;82;21055;-52
2022/04/18 02:14:01;;;;;;;9.10;4.12;;;;;;;3.16;65.33;100464.78;1697486;83;21056;-53
2022/04/18 02:16:28;;;;;;;11.88;4.15;;;;;;;3.16;65.32;100455.24;1703330;83;21101;-52
2022/04/18 02:18:55;;;;;;;10.60;4.85;;;;;;;3.14;65.36;100455.78;1700267;83;21559;-53
2022/04/18 02:21:22;;;;;;;10.08;4.70;;;;;;;3.12;65.40;100454.98;1705534;82;21960;-52
2022/04/18 02:23:50;;;;;;;12.15;4.78;;;;;;;3.10;65.49;100449.02;1703692;83;21460;-53
2022/04/18 02:26:16;;;;;;;11.75;4.42;;;;;;;3.07;65.56;100450.93;1701056;83;21689;-53
2022/04/18 02:28:44;;;;;;;11.95;5.17;;;;;;;3.03;65.66;100449.41;1673333;83;21529;-52
2022/04/18 02:31:12;;;;;;;6.83;3.35;;;;;;;2.98;65.68;100449.62;1704593;83;21118;-53
2022/04/18 02:33:39;;;;;;;11.00;4.25;;;;;;;2.98;65.74;100453.52;1701294;83;21118;-52
2022/04/18 02:36:06;;;;;;;10.28;3.98;;;;;;;3.04;65.69;100451.91;1695505;83;21449;-53
2022/04/18 02:38:33;;;;;;;9.98;4.35;;;;;;;3.09;65.63;100443.45;1705677;83;21091;-53
2022/04/18 02:41:00;;;;;;;10.03;4.40;;;;;;;3.12;65.53;100451.09;1702074;84;21054;-52
2022/04/18 02:43:27;;;;;;;7.95;3.52;;;;;;;3.10;65.50;100451.63;1700153;83;21519;-52
2022/04/18 02:45:57;;;;;;;7.92;3.30;;;;;;;3.08;65.51;100448.27;1697831;83;21425;-52
2022/04/18 02:48:25;;;;;;;10.15;3.67;;;;;;;3.06;65.57;100443.59;1685385;82;21075;-52
2022/04/18 02:50:54;;;;;;;8.70;3.70;;;;;;;3.01;65.50;100440.81;1703535;82;21548;-53
2022/04/18 02:53:22;;;;;;;7.25;3.47;;;;;;;2.91;65.68;100438.67;1695341;82;21064;-52
2022/04/18 02:55:52;;;;;;;9.90;3.30;;;;;;;2.90;65.76;100435.67;1700632;83;21050;-53
2022/04/18 02:58:18;;;;;;;7.85;3.52;;;;;;;2.94;65.77;100435.06;1701780;83;21168;-53
2022/04/18 03:00:46;;;;;;;7.15;3.10;;;;;;;2.99;65.82;100438.28;1698842;84;21041;-53
2022/04/18 03:03:13;;;;;;;6.80;2.95;;;;;;;3.03;65.79;100429.91;1699838;82;21114;-53
2022/04/18 03:05:40;;;;;;;10.82;3.45;;;;;;;3.03;65.72;100435.11;1705829;83;21142;-52
2022/04/18 03:08:07;;;;;;;9.48;3.30;;;;;;;3.03;65.58;100439.02;1707637;82;21125;-53
2022/04/18 03:13:24;;;;;;;7.45;3.35;;;;;;;2.97;65.67;100431.02;1744976;80;22224;-53
2022/04/18 03:15:52;;;;;;;6.47;3.25;;;;;;;2.99;65.65;100425.28;1747798;82;21641;-53
2022/04/18 03:18:21;;;;;;;5.92;2.85;;;;;;;3.05;65.45;100427.61;1742070;81;21010;-52
2022/04/18 03:20:49;;;;;;;7.05;3.30;;;;;;;3.05;65.52;100426.30;1745561;80;21098;-53
2022/04/18 03:23:16;;;;;;;9.30;3.40;;;;;;;3.05;65.44;100428.08;1744386;81;21146;-53
2022/04/18 03:25:46;;;;;;;6.42;3.27;;;;;;;3.04;65.53;100419.41;1722005;81;21035;-53
2022/04/18 03:28:15;;;;;;;8.10;3.58;;;;;;;3.03;65.55;100428.14;1745415;80;21050;-52
2022/04/18 03:30:43;;;;;;;7.58;3.33;;;;;;;3.02;65.53;100427.75;1750481;82;21096;-53
2022/04/18 03:33:10;;;;;;;6.50;2.83;;;;;;;3.01;65.53;100420.02;1739923;80;21058;-53
2022/04/18 03:35:37;;;;;;;5.85;2.77;;;;;;;3.06;65.48;100418.91;1732129;81;21154;-53
2022/04/18 03:40:49;;;;;;;6.87;3.12;;;;;;;3.19;65.11;100416.53;1750001;80;21051;-53
2022/04/18 03:43:16;;;;;;;8.80;3.37;;;;;;;3.19;65.07;100415.23;1744062;81;21023;-53
2022/04/18 03:45:42;;;;;;;8.70;3.33;;;;;;;3.21;65.14;100409.52;1690991;84;21082;-53
2022/04/18 03:48:11;;;;;;;7.78;3.83;;;;;;;3.20;64.95;100408.29;1698988;82;21089;-53
2022/04/18 03:50:37;;;;;;;6.60;2.80;;;;;;;3.16;64.95;100402.38;1693218;83;21026;-53
2022/04/18 03:53:06;;;;;;;9.40;3.27;;;;;;;3.15;64.95;100398.94;1702181;82;22155;-53
2022/04/18 03:55:35;;;;;;;6.15;3.17;;;;;;;3.15;64.89;100396.81;1703224;82;20998;-53
2022/04/18 03:58:04;;;;;;;7.53;2.77;;;;;;;3.18;64.82;100388.00;1691554;82;21046;-52
2022/04/18 04:00:34;;;;;;;9.15;2.90;;;;;;;3.25;64.75;100387.63;1693628;82;21132;-52
2022/04/18 04:03:01;;;;;;;8.43;3.30;;;;;;;3.33;64.61;100388.56;1693706;82;21583;-52
2022/04/18 04:05:29;;;;;;;7.72;3.42;;;;;;;3.37;64.59;100382.28;1698156;83;21042;-53
2022/04/18 04:07:57;;;;;;;6.40;3.00;;;;;;;3.40;64.37;100382.13;1702222;83;21468;-52
2022/04/18 04:10:28;;;;;;;8.63;3.55;;;;;;;3.41;64.29;100371.26;1709905;82;21055;-53
2022/04/18 04:12:57;;;;;;;6.12;2.75;;;;;;;3.40;64.23;100373.03;1679945;82;21557;-52
2022/04/18 04:15:25;;;;;;;6.87;3.00;;;;;;;3.38;64.08;100361.00;1669040;84;21043;-53
2022/04/18 04:17:56;;;;;;;6.65;2.87;;;;;;;3.35;64.08;100355.52;1713551;82;22217;-53
2022/04/18 04:20:23;;;;;;;6.35;3.02;;;;;;;3.35;63.87;100357.64;1690520;84;21599;-52
2022/04/18 04:22:52;;;;;;;6.83;3.60;;;;;;;3.33;63.84;100356.05;1692845;82;21606;-53
2022/04/18 04:25:20;;;;;;;7.30;2.87;;;;;;;3.31;64.18;100354.83;1705027;82;21146;-53
2022/04/18 04:27:48;;;;;;;9.40;3.45;;;;;;;3.33;64.24;100353.45;1684101;84;21059;-53
2022/04/18 04:30:15;;;;;;;7.45;3.42;;;;;;;3.33;64.18;100356.05;1676921;82;21039;-52
2022/04/18 04:32:43;;;;;;;10.28;3.42;;;;;;;3.30;64.05;100356.20;1688271;84;21038;-53
2022/04/18 04:35:09;;;;;;;8.68;3.60;;;;;;;3.29;64.03;100352.73;1693290;82;21081;-52
2022/04/18 04:37:41;;;;;;;9.50;3.85;;;;;;;3.32;64.09;100348.69;1690947;84;21167;-54
2022/04/18 04:40:12;;;;;;;9.55;4.00;;;;;;;3.35;64.07;100348.54;1723660;81;20998;-52
2022/04/18 04:42:39;;;;;;;9.13;4.10;;;;;;;3.38;63.96;100347.56;1736068;82;21031;-54
2022/04/18 04:45:08;;;;;;;7.83;4.42;;;;;;;3.38;63.88;100346.26;1698375;83;21070;-53
2022/04/18 04:47:45;;;;;;;10.63;4.58;;;;;;;3.38;63.84;100347.56;1666792;83;21050;-51
2022/04/18 04:50:12;;;;;;;9.55;4.75;;;;;;;3.37;63.77;100348.47;1700925;82;21166;-52
2022/04/18 04:52:41;;;;;;;12.53;5.00;;;;;;;3.37;63.79;100349.77;1700080;83;21596;-51
2022/04/18 04:55:10;;;;;;;8.33;3.67;;;;;;;3.36;64.08;100337.67;1693187;82;21009;-52
2022/04/18 04:57:39;;;;;;;13.05;4.20;;;;;;;3.40;63.80;100340.52;1693915;84;21102;-52
2022/04/18 05:00:24;;;;;;;9.78;4.72;;;;;;;3.50;63.94;100344.32;1617143;86;21099;-52
2022/04/18 05:03:05;;;;;;;10.18;4.05;;;;;;;3.60;63.83;100347.30;1676196;83;21175;-53
2022/04/18 05:05:33;;;;;;;10.78;4.15;;;;;;;3.65;63.72;100341.39;1696360;83;21119;-53
2022/04/18 05:08:00;;;;;;;10.03;4.17;;;;;;;3.70;63.70;100347.20;1701577;82;21123;-52
2022/04/18 05:10:29;;;;;;;7.55;3.60;;;;;;;3.74;63.44;100345.27;1702308;83;21075;-53
2022/04/18 05:12:57;;;;;;;7.70;3.50;;;;;;;3.72;62.86;100345.34;1696263;82;21569;-53
2022/04/18 05:15:25;;;;;;;8.28;3.62;;;;;;;3.66;62.58;100344.83;1698138;83;21076;-53
2022/04/18 05:18:03;;;;;;;6.83;3.10;;;;;;;3.56;62.79;100337.12;1646675;85;21097;-53
2022/04/18 05:20:31;;;;;;;6.30;3.15;;;;;;;3.52;62.93;100333.38;1736068;81;21102;-53
2022/04/18 05:22:59;;;;;;;7.00;3.40;;;;;;;3.54;63.08;100333.30;1717588;81;21102;-53
2022/04/18 05:25:26;;;;;;;8.25;3.33;;;;;;;3.52;63.03;100333.84;1696920;82;21051;-53
2022/04/18 05:27:53;;;;;;;6.20;2.75;;;;;;;3.50;63.07;100329.19;1734671;82;21155;-53
2022/04/18 05:30:24;;;;;;;6.42;2.98;;;;;;;3.49;62.99;100327.02;1726920;81;21094;-53
2022/04/18 05:32:52;;;;;;;6.53;2.80;;;;;;;3.49;63.16;100332.69;1721161;81;21343;-53
2022/04/18 05:35:20;;;;;;;7.10;2.92;;;;;;;3.49;63.38;100336.59;1719062;81;21808;-53
2022/04/18 05:37:48;;;;;;;6.55;2.83;;;;;;;3.47;63.37;100332.77;1683802;85;21132;-53
2022/04/18 05:40:16;;;;;;;7.30;2.90;;;;;;;3.53;63.27;100331.59;1699332;82;21277;-54
2022/04/18 05:42:43;;;;;;;7.87;3.22;;;;;;;3.61;62.99;100326.84;1710159;82;21055;-51
2022/04/18 05:45:12;;;;;;;8.23;3.17;;;;;;;3.68;62.84;100325.63;1698400;83;21600;-53
2022/04/18 05:47:39;;;;;;;8.30;3.02;;;;;;;3.72;62.76;100323.70;1703855;82;21677;-54
2022/04/18 05:50:07;;;;;;;5.67;2.60;;;;;;;3.74;62.64;100323.62;1702052;82;21019;-52
2022/04/18 05:52:35;;;;;;;7.00;3.45;;;;;;;3.73;62.69;100325.36;1703635;82;21129;-54
2022/04/18 05:55:05;;;;;;;6.17;2.80;;;;;;;3.75;62.65;100326.59;1698186;83;21092;-51
2022/04/18 05:57:32;;;;;;;7.87;3.10;;;;;;;3.72;62.79;100325.00;1694064;83;21012;-52
2022/04/18 06:00:02;;;;;;;6.20;2.70;;;;;;;3.74;63.03;100324.45;1700715;83;21135;-52
2022/04/18 06:02:31;;;;;;;7.47;3.10;;;;;;;3.82;62.59;100326.20;1701045;83;22285;-52
2022/04/18 06:05:03;;;;;;;5.80;2.95;;;;;;;3.81;61.74;100319.30;1687858;83;21457;-52
2022/04/18 06:07:45;;;;;;;6.00;3.05;;;;;;;3.81;61.74;100320.59;1684276;83;21038;-52
2022/04/18 06:10:28;;;;;;;7.03;3.12;;;;;;;3.73;61.47;100320.16;1704986;82;21071;-52
2022/04/18 06:12:57;;;;;;;6.42;2.90;;;;;;;3.65;61.21;100321.05;1693271;83;21062;-52
2022/04/18 06:15:25;;;;;;;8.33;2.58;;;;;;;3.59;61.76;100320.89;1694595;82;21132;-52
2022/04/18 06:17:53;;;;;;;6.35;3.08;;;;;;;3.62;62.21;100321.20;1690499;83;21086;-52
2022/04/18 06:20:22;;;;;;;7.67;2.62;;;;;;;3.70;62.16;100321.64;1703454;82;21106;-52
2022/04/18 06:22:49;;;;;;;8.95;3.08;;;;;;;3.81;61.08;100314.09;1704091;83;21045;-52
2022/04/18 06:25:16;;;;;;;8.03;3.00;;;;;;;3.91;60.72;100320.48;1701674;83;21078;-52
2022/04/18 06:27:44;;;;;;;9.10;3.55;;;;;;;3.94;60.54;100322.57;1704836;83;21590;-52
2022/04/18 06:30:11;;;;;;;6.47;3.15;;;;;;;3.97;60.12;100316.73;1698765;83;21112;-52
2022/04/18 06:32:40;;;;;;;6.37;2.92;;;;;;;4.00;59.83;100316.58;1698091;83;21548;-52
2022/04/18 06:35:10;;;;;;;6.12;3.08;;;;;;;4.00;59.70;100317.88;1696073;82;21059;-52
2022/04/18 06:37:38;;;;;;;6.58;2.92;;;;;;;4.00;59.71;100314.41;1709072;82;21039;-52
2022/04/18 06:40:08;;;;;;;7.78;3.20;;;;;;;4.02;59.79;100315.19;1707379;82;21148;-53
2022/04/18 06:42:39;;;;;;;7.37;3.12;;;;;;;4.01;59.73;100320.01;1709623;82;21423;-52
2022/04/18 06:45:14;;;;;;;8.13;3.20;;;;;;;3.99;59.86;100317.48;1714970;83;21058;-53
2022/04/18 06:47:41;;;;;;;6.25;3.00;;;;;;;3.99;59.49;100312.75;1718324;82;21053;-52
2022/04/18 06:50:15;;;;;;;6.97;2.75;;;;;;;3.97;59.73;100315.88;1714263;82;21065;-53
2022/04/18 06:52:50;;;;;;;6.97;3.52;;;;;;;4.01;60.10;100323.91;1715291;82;21097;-52
2022/04/18 06:58:31;;;;;;;6.83;2.65;;;;;;;4.26;60.19;100317.75;1710287;82;21041;-52
2022/04/18 07:00:59;;;;;;;8.05;2.80;;;;;;;4.41;59.52;100317.84;1715087;83;21138;-52
2022/04/18 07:03:27;;;;;;;5.62;2.27;;;;;;;4.52;58.88;100315.45;1711246;82;21150;-52
2022/04/18 07:05:54;;;;;;;4.50;1.62;;;;;;;4.62;59.22;100317.95;1717050;83;21078;-52
2022/04/18 07:08:21;;;;;;;5.00;2.20;;;;;;;4.75;58.93;100319.85;1712826;82;21149;-52
2022/04/18 07:10:48;;;;;;;5.08;1.75;;;;;;;4.80;58.44;100313.44;1715642;83;21476;-52
2022/04/18 07:13:15;;;;;;;3.72;1.70;;;;;;;4.84;57.82;100313.66;1710333;82;21489;-52
2022/04/18 07:15:43;;;;;;;7.97;1.92;;;;;;;4.88;57.59;100314.31;1714924;83;21133;-53
2022/04/18 07:18:11;;;;;;;4.22;1.60;;;;;;;4.96;58.24;100316.47;1715694;82;21097;-52
2022/04/18 07:20:41;;;;;;;5.37;1.70;;;;;;;5.06;57.96;100309.81;1715050;82;21081;-53
2022/04/18 07:23:09;;;;;;;3.98;1.70;;;;;;;5.10;55.41;100311.77;1716741;82;21562;-52
2022/04/18 07:25:38;;;;;;;4.12;1.45;;;;;;;5.06;55.04;100308.95;1715026;83;21041;-52
2022/04/18 07:28:09;;;;;;;5.70;1.85;;;;;;;4.98;54.94;100307.64;1715313;82;21053;-52
2022/04/18 07:30:37;;;;;;;3.55;1.42;;;;;;;4.89;54.94;100300.80;1710012;82;21038;-53
2022/04/18 07:33:05;;;;;;;5.15;1.60;;;;;;;4.87;54.90;100304.80;1709680;82;22128;-52
2022/04/18 07:35:34;;;;;;;4.30;1.62;;;;;;;4.90;54.79;100303.80;1713907;82;21085;-52
2022/04/18 07:40:50;;;;;;;5.13;1.43;;;;;;;5.03;54.83;100305.60;1717196;82;21660;-52
2022/04/18 07:43:18;;;;;;;5.85;1.90;;;;;;;5.09;54.69;100297.87;1716069;82;21059;-51
2022/04/18 07:45:45;;;;;;;4.20;1.55;;;;;;;5.12;54.10;100299.48;1716296;82;21199;-52
2022/04/18 07:48:13;;;;;;;5.22;1.60;;;;;;;5.12;54.30;100294.26;1709678;82;21113;-52
2022/04/18 07:53:28;;;;;;;5.58;2.08;;;;;;;5.14;54.71;100290.61;1719055;82;21109;-51
2022/04/18 07:55:55;;;;;;;4.70;1.82;;;;;;;5.14;54.90;100295.00;1711985;82;21150;-52
2022/04/18 07:58:22;;;;;;;4.97;1.87;;;;;;;5.17;54.41;100290.91;1718130;82;21077;-51
2022/04/18 08:00:50;;;;;;;4.08;1.60;;;;;;;5.24;54.77;100290.09;1717198;82;21058;-52
2022/04/18 08:03:17;;;;;;;5.60;2.10;;;;;;;5.32;53.93;100286.09;1712148;82;21110;-52
2022/04/18 08:05:49;;;;;;;4.95;2.15;;;;;;;5.36;54.06;100284.13;1716188;82;21041;-51
2022/04/18 08:08:18;;;;;;;5.50;2.35;;;;;;;5.39;54.09;100284.78;1710494;82;21563;-52
2022/04/18 08:10:44;;;;;;;7.22;2.25;;;;;;;5.40;54.03;100281.73;1710287;82;22044;-53
2022/04/18 08:13:12;;;;;;;6.22;2.75;;;;;;;5.42;53.98;100281.64;1704533;82;21572;-52
2022/04/18 08:15:41;;;;;;;6.08;2.60;;;;;;;5.45;54.13;100278.38;1713762;83;21975;-52
2022/04/18 08:18:22;;;;;;;5.05;2.10;;;;;;;5.49;53.92;100273.80;1717359;82;21476;-52
2022/04/18 08:20:52;;;;;;;4.35;1.70;;;;;;;5.55;53.50;100272.14;1701946;83;21023;-52
2022/04/18 08:23:19;;;;;;;5.28;2.25;;;;;;;5.53;53.00;100280.05;1699855;82;21160;-51
2022/04/18 08:25:53;;;;;;;5.75;2.10;;;;;;;5.53;52.98;100277.89;1677339;83;21031;-53
2022/04/18 08:28:22;;;;;;;5.62;2.37;;;;;;;5.57;52.92;100271.56;1695757;82;21089;-52
2022/04/18 08:30:51;;;;;;;4.47;1.80;;;;;;;5.60;52.97;100268.78;1701363;82;21540;-52
2022/04/18 08:33:37;;;;;;;5.62;1.95;;;;;;;5.62;52.46;100272.13;1706741;82;21027;-53
2022/04/18 08:36:05;;;;;;;4.35;1.92;;;;;;;5.59;52.81;100264.48;1715602;83;21049;-53
2022/04/18 08:38:32;;;;;;;5.10;1.77;;;;;;;5.65;52.86;100260.64;1702116;82;21477;-52
2022/04/18 08:41:04;;;;;;;4.85;1.90;;;;;;;5.70;52.47;100267.27;1695701;84;21122;-52
2022/04/18 08:43:31;;;;;;;4.12;1.62;;;;;;;5.78;52.14;100264.17;1694728;83;21600;-52
2022/04/18 08:45:59;;;;;;;3.15;1.50;;;;;;;5.89;52.20;100253.91;1694251;83;21607;-52
2022/04/18 08:53:58;;;;;;;4.62;1.45;;;;;;;5.96;52.36;100253.09;1687556;83;21024;-52
2022/04/18 08:56:26;;;;;;;5.87;1.87;;;;;;;5.92;52.05;100252.41;1699465;83;21572;-52
2022/04/18 08:58:55;;;;;;;4.10;1.65;;;;;;;5.88;52.19;100252.22;1696437;83;21010;-51
2022/04/18 09:01:22;;;;;;;5.65;1.90;;;;;;;5.85;51.89;100251.58;1702252;83;21176;-51
2022/04/18 09:03:51;;;;;;;5.22;2.22;;;;;;;5.80;51.85;100248.41;1695621;83;21555;-52
2022/04/18 09:06:24;;;;;;;4.15;1.87;;;;;;;5.77;52.72;100245.07;1701038;82;21084;-51
2022/04/18 09:08:57;;;;;;;5.25;2.22;;;;;;;5.77;52.99;100239.02;1705544;83;21630;-52
2022/04/18 09:11:37;;;;;;;5.30;2.22;;;;;;;5.72;52.71;100248.43;1705161;83;21087;-53
2022/04/18 09:14:13;;;;;;;5.30;2.30;;;;;;;5.69;53.01;100246.01;1701412;83;21000;-53
2022/04/18 09:16:41;;;;;;;5.65;2.15;;;;;;;5.65;52.85;100238.45;1677010;83;21079;-53
2022/04/18 09:19:14;;;;;;;5.40;2.25;;;;;;;5.63;52.69;100239.88;1695930;82;21120;-53
2022/04/18 09:22:02;;;;;;;5.45;1.95;;;;;;;5.64;52.92;100238.09;1696543;83;21575;-53
2022/04/18 09:24:36;;;;;;;5.70;2.58;;;;;;;5.65;52.63;100238.00;1696434;83;21035;-51
2022/04/18 09:27:29;;;;;;;5.22;1.80;;;;;;;5.65;52.71;100237.15;1701049;83;21170;-52
2022/04/18 09:30:09;;;;;;;5.22;2.22;;;;;;;5.69;52.66;100243.39;1694118;83;21020;-51
2022/04/18 09:32:40;;;;;;;3.65;1.55;;;;;;;5.73;52.59;100232.30;1699061;83;21129;-51
2022/04/18 09:35:15;;;;;;;4.58;1.60;;;;;;;5.79;51.97;100241.53;1699992;83;21068;-52
2022/04/18 09:37:44;;;;;;;6.30;2.00;;;;;;;5.83;51.87;100235.17;1704814;83;21095;-51
2022/04/18 09:40:12;;;;;;;6.22;2.60;;;;;;;5.86;52.23;100231.06;1650134;84;21115;-52
2022/04/18 09:42:38;;;;;;;4.62;2.15;;;;;;;5.87;52.15;100232.76;1686012;84;21052;-52
2022/04/18 09:45:08;;;;;;;5.92;2.60;;;;;;;5.88;52.41;100232.63;1687595;84;22271;-51
2022/04/18 09:47:36;;;;;;;5.35;2.27;;;;;;;5.88;51.87;100235.72;1686731;84;21568;-51
2022/04/18 09:53:07;;;;;;;6.10;2.47;;;;;;;5.88;52.68;100227.41;1690711;84;21815;-51
2022/04/18 09:55:35;;;;;;;5.92;2.80;;;;;;;5.93;51.84;100224.07;1694042;82;21032;-50
2022/04/18 09:58:03;;;;;;;6.95;2.67;;;;;;;5.99;52.56;100220.25;1699037;84;21367;-51
2022/04/18 10:00:30;;;;;;;10.80;2.75;;;;;;;6.07;51.85;100211.91;1689621;84;21532;-50
2022/04/18 10:02:58;;;;;;;6.17;2.35;;;;;;;6.16;51.87;100219.17;1689494;82;21580;-52
2022/04/18 10:05:27;;;;;;;6.17;2.75;;;;;;;6.20;51.39;100215.89;1689572;84;21106;-51
2022/04/18 10:07:55;;;;;;;6.83;3.00;;;;;;;6.21;50.99;100214.97;1697330;84;20983;-52
2022/04/18 10:10:22;;;;;;;8.58;3.02;;;;;;;6.19;50.84;100214.23;1694907;84;21069;-51
2022/04/18 10:12:50;;;;;;;7.85;2.60;;;;;;;6.22;51.38;100216.63;1696255;84;21055;-51
2022/04/18 10:15:17;;;;;;;6.97;2.90;;;;;;;6.24;50.95;100214.30;1694893;84;21114;-51
2022/04/18 10:17:45;;;;;;;9.18;3.17;;;;;;;6.28;50.96;100213.14;1693884;84;21571;-52
2022/04/18 10:20:41;;;;;;;6.95;3.42;;;;;;;6.33;51.17;100212.38;1690705;82;22012;-52
2022/04/18 10:23:27;;;;;;;;;;;;;;;6.39;51.34;100216.83;1678678;82;21102;-51
2022/04/18 10:26:48;;;;;;;9.08;2.60;;;;;;;6.45;51.34;100217.27;1673638;84;20200;-52
2022/04/18 10:29:21;;;;;;;6.78;2.65;;;;;;;6.42;50.78;100216.19;1677928;84;21059;-53
2022/04/18 10:31:48;;;;;;;5.78;2.60;;;;;;;6.42;50.55;100211.41;1692574;84;21541;-53
2022/04/18 10:34:17;;;;;;;4.67;2.17;;;;;;;6.49;50.13;100208.78;1685718;82;21099;-52
2022/04/18 10:36:46;;;;;;;6.67;2.83;;;;;;;6.59;50.15;100214.22;1645784;84;22453;-51
2022/04/18 10:39:13;;;;;;;4.30;1.72;;;;;;;6.64;50.10;100208.22;1692549;82;21101;-51
2022/04/18 10:41:45;;;;;;;4.25;1.60;;;;;;;6.70;49.47;100204.72;1690334;82;21091;-52
2022/04/18 10:44:16;;;;;;;4.83;1.92;;;;;;;6.69;48.54;100208.75;1711734;82;21152;-52
2022/04/18 10:46:55;;;;;;;5.10;1.98;;;;;;;6.66;48.70;100212.42;1708658;82;21066;-50
2022/04/18 10:49:25;;;;;;;4.17;1.50;;;;;;;6.62;49.34;100211.41;1710882;82;21121;-51
2022/04/18 10:51:54;;;;;;;3.70;1.40;;;;;;;6.63;48.85;100210.48;1714295;82;22287;-51
2022/04/18 10:54:23;;;;;;;4.05;1.50;;;;;;;6.65;49.24;100208.59;1716281;82;21046;-52
2022/04/18 10:57:02;;;;;;;4.15;1.50;;;;;;;6.70;49.62;100210.44;1674686;84;21031;-52
2022/04/18 10:59:34;;;;;;;6.92;1.90;;;;;;;6.77;49.38;100206.45;1681684;84;21066;-52
2022/04/18 11:02:04;;;;;;;4.83;2.10;;;;;;;6.79;49.88;100196.76;1703288;82;21073;-52
2022/04/18 11:04:35;;;;;;;4.40;1.80;;;;;;;6.77;49.72;100206.45;1709407;82;21500;-50
2022/04/18 11:07:05;;;;;;;4.10;1.45;;;;;;;6.73;49.75;100206.31;1680612;84;21185;-51
2022/04/18 11:09:38;;;;;;;5.22;1.82;;;;;;;6.69;50.29;100212.22;1689096;83;21789;-51
2022/04/18 11:12:15;;;;;;;3.92;1.35;;;;;;;6.67;50.57;100202.78;1690636;82;21499;-51
2022/04/18 11:14:54;;;;;;;5.70;2.15;;;;;;;6.70;50.74;100201.28;1684120;84;21087;-51
2022/04/18 11:17:33;;;;;;;5.75;2.10;;;;;;;6.76;51.36;100194.80;1692676;84;21106;-50
2022/04/18 11:20:32;;;;;;;5.33;2.27;;;;;;;6.78;51.54;100197.69;1692197;84;21052;-51
2022/04/18 11:23:23;;;;;;;5.90;1.72;;;;;;;6.75;51.18;100204.91;1684416;82;21165;-51
2022/04/18 11:26:02;;;;;;;4.47;1.70;;;;;;;6.66;51.00;100202.44;1693570;84;22237;-52
2022/04/18 11:28:43;;;;;;;4.30;1.62;;;;;;;6.58;50.77;100200.80;1694815;84;21004;-52
2022/04/18 11:31:21;;;;;;;4.55;1.70;;;;;;;6.55;51.64;100207.05;1706457;82;21037;-51
2022/04/18 11:33:48;;;;;;;4.25;1.37;;;;;;;6.52;50.25;100200.72;1715185;82;21054;-50
2022/04/18 11:36:15;;;;;;;5.70;1.85;;;;;;;6.50;50.28;100203.42;1714795;82;21158;-52
2022/04/18 11:38:43;;;;;;;7.20;1.90;;;;;;;6.45;50.54;100197.67;1713492;83;21052;-51
2022/04/18 11:41:13;;;;;;;4.53;1.20;;;;;;;6.47;50.82;100198.43;1714007;82;21042;-52
2022/04/18 11:43:40;;;;;;;4.08;1.57;;;;;;;6.47;50.79;100193.20;1744926;81;21059;-52
2022/04/18 11:46:09;;;;;;;4.05;1.55;;;;;;;6.50;50.80;100192.14;1734501;81;21035;-52
2022/04/18 11:48:36;;;;;;;4.67;1.72;;;;;;;6.55;50.23;100184.00;1741205;80;22845;-51
2022/04/18 11:51:04;;;;;;;4.00;1.32;;;;;;;6.56;50.17;100187.00;1737842;82;21357;-51
2022/04/18 11:53:31;;;;;;;3.33;1.15;;;;;;;6.58;50.59;100188.55;1745795;80;21625;-53
2022/04/18 11:55:58;;;;;;;4.72;1.40;;;;;;;6.58;50.58;100186.42;1748474;80;21059;-51
2022/04/18 11:58:26;;;;;;;4.15;1.55;;;;;;;6.61;50.14;100188.84;1733385;82;21070;-51
2022/04/18 12:06:45;;;;;;;3.55;1.30;;;;;;;6.67;49.82;100184.48;1747945;80;21052;-52
2022/04/18 12:09:14;;;;;;;4.08;1.70;;;;;;;6.73;50.02;100181.95;1748966;80;21514;-52
2022/04/18 12:11:41;;;;;;;4.33;1.27;;;;;;;6.82;49.10;100183.92;1704737;82;21122;-52
2022/04/18 12:14:09;;;;;;;3.72;1.40;;;;;;;6.93;49.43;100173.58;1707024;82;21019;-52
2022/04/18 12:16:37;;;;;;;2.92;1.10;;;;;;;7.06;48.45;100160.48;1701895;82;21051;-52
2022/04/18 12:19:05;;;;;;;2.87;0.90;;;;;;;7.14;47.37;100162.10;1692728;83;21529;-52